createdAt,value
2023-01-23T00:00:43.969Z,-2.08
2023-01-23T00:01:44.477Z,-2.02
2023-01-23T00:02:45.123Z,-2.05
2023-01-23T00:03:45.516Z,-2.1
2023-01-23T00:04:45.970Z,-2.15
2023-01-23T00:05:45.892Z,-2.07
2023-01-23T00:06:47.390Z,-2.13
2023-01-23T00:07:47.288Z,-2.14
2023-01-23T00:08:48.200Z,-2.07
2023-01-23T00:09:49.141Z,-2.11
2023-01-23T00:10:49.103Z,-2.1
2023-01-23T00:11:50.699Z,-2.11
2023-01-23T00:12:51.388Z,-2.07
2023-01-23T00:13:51.783Z,-2.32
2023-01-23T00:14:52.533Z,-2.15
2023-01-23T00:15:53.402Z,-2.14
2023-01-23T00:16:53.737Z,-2.23
2023-01-23T00:17:53.958Z,-2.33
2023-01-23T00:18:55.162Z,-2.26
2023-01-23T00:19:55.535Z,-2.32
2023-01-23T00:20:56.792Z,-2.39
2023-01-23T00:21:57.140Z,-2.45
2023-01-23T00:22:57.531Z,-2.37
2023-01-23T00:23:58.206Z,-2.25
2023-01-23T00:24:59.189Z,-2.22
2023-01-23T00:26:00.110Z,-2.2
2023-01-23T00:27:00.444Z,-2.25
2023-01-23T00:28:00.630Z,-2.2
2023-01-23T00:29:00.958Z,-2.05
2023-01-23T00:30:02.266Z,-2.11
2023-01-23T00:31:03.259Z,-2.05
2023-01-23T00:32:03.969Z,-2.17
2023-01-23T00:33:04.564Z,-2.08
2023-01-23T00:34:04.765Z,-1.99
2023-01-23T00:35:05.075Z,-2.02
2023-01-23T00:36:06.284Z,-1.93
2023-01-23T00:37:07.221Z,-1.92
2023-01-23T00:38:07.203Z,-1.9
2023-01-23T00:39:08.329Z,-1.9
2023-01-23T00:40:08.535Z,-1.92
2023-01-23T00:41:09.141Z,-1.86
2023-01-23T00:42:09.739Z,-1.81
2023-01-23T00:43:09.662Z,-1.84
2023-01-23T00:44:10.528Z,-1.86
2023-01-23T00:45:10.881Z,-1.79
2023-01-23T00:46:10.998Z,-1.78
2023-01-23T00:47:11.396Z,-1.78
2023-01-23T00:48:11.332Z,-1.76
2023-01-23T00:49:12.290Z,-1.79
2023-01-23T00:50:13.295Z,-1.78
2023-01-23T00:51:13.533Z,-1.71
2023-01-23T00:52:13.909Z,-1.78
2023-01-23T00:53:14.449Z,-1.84
2023-01-23T00:54:16.032Z,-1.89
2023-01-23T00:55:16.247Z,-1.82
2023-01-23T00:56:17.469Z,-1.86
2023-01-23T00:57:17.799Z,-1.84
2023-01-23T00:58:18.818Z,-1.81
2023-01-23T00:59:19.478Z,-1.82
2023-01-23T01:00:20.486Z,-1.92
2023-01-23T01:01:21.451Z,-2
2023-01-23T01:02:21.445Z,-1.99
2023-01-23T01:03:21.932Z,-2.1
2023-01-23T01:04:23.129Z,-2.04
2023-01-23T01:05:23.203Z,-2.07
2023-01-23T01:06:24.396Z,-2.1
2023-01-23T01:07:25.071Z,-2.14
2023-01-23T01:08:25.706Z,-2.07
2023-01-23T01:09:26.355Z,-2.1
2023-01-23T01:10:27.349Z,-2.11
2023-01-23T01:11:27.977Z,-2.13
2023-01-23T01:12:29.036Z,-2.13
2023-01-23T01:13:29.205Z,-2.15
2023-01-23T01:14:30.552Z,-2.07
2023-01-23T01:15:30.584Z,-2.14
2023-01-23T01:16:30.941Z,-1.99
2023-01-23T01:17:31.604Z,-2.05
2023-01-23T01:18:31.968Z,-1.99
2023-01-23T01:19:32.897Z,-1.99
2023-01-23T01:20:33.501Z,-1.93
2023-01-23T01:21:33.710Z,-1.93
2023-01-23T01:22:33.655Z,-1.93
2023-01-23T01:23:33.502Z,-1.96
2023-01-23T01:24:34.452Z,-1.81
2023-01-23T01:25:35.373Z,-1.86
2023-01-23T01:26:36.286Z,-1.79
2023-01-23T01:27:36.606Z,-1.81
2023-01-23T01:28:37.256Z,-1.86
2023-01-23T01:29:38.273Z,-1.89
2023-01-23T01:30:39.265Z,-1.84
2023-01-23T01:31:40.152Z,-1.84
2023-01-23T01:32:40.341Z,-1.72
2023-01-23T01:33:40.761Z,-1.78
2023-01-23T01:34:40.718Z,-1.75
2023-01-23T01:35:41.436Z,-1.75
2023-01-23T01:36:42.374Z,-1.84
2023-01-23T01:37:43.034Z,-1.9
2023-01-23T01:38:43.523Z,-1.84
2023-01-23T01:39:43.444Z,-1.78
2023-01-23T01:40:44.353Z,-1.9
2023-01-23T01:41:44.556Z,-2.02
2023-01-23T01:42:45.151Z,-1.93
2023-01-23T01:43:44.993Z,-1.96
2023-01-23T01:44:45.593Z,-1.94
2023-01-23T01:45:46.480Z,-2.02
2023-01-23T01:46:47.405Z,-1.99
2023-01-23T01:47:47.408Z,-1.94
2023-01-23T01:48:47.603Z,-2.04
2023-01-23T01:49:48.091Z,-1.97
2023-01-23T01:50:48.525Z,-1.97
2023-01-23T01:51:48.611Z,-1.99
2023-01-23T01:52:49.566Z,-2.04
2023-01-23T01:53:50.239Z,-2.02
2023-01-23T01:54:51.308Z,-2.04
2023-01-23T01:55:51.789Z,-2
2023-01-23T01:56:52.062Z,-1.99
2023-01-23T01:57:52.370Z,-2
2023-01-23T01:58:52.577Z,-1.99
2023-01-23T01:59:52.888Z,-2
2023-01-23T02:00:53.504Z,-2.02
2023-01-23T02:01:53.515Z,-1.99
2023-01-23T02:02:53.865Z,-2.05
2023-01-23T02:03:53.708Z,-2.02
2023-01-23T02:04:54.628Z,-1.99
2023-01-23T02:05:55.938Z,-2.1
2023-01-23T02:06:56.153Z,-2.14
2023-01-23T02:07:56.638Z,-2.13
2023-01-23T02:08:56.831Z,-2.2
2023-01-23T02:09:57.764Z,-2.04
2023-01-23T02:10:57.684Z,-2.14
2023-01-23T02:11:57.927Z,-2.15
2023-01-23T02:12:58.550Z,-2.22
2023-01-23T02:13:58.812Z,-2.11
2023-01-23T02:14:59.551Z,-2.2
2023-01-23T02:15:59.968Z,-2.33
2023-01-23T02:17:00.137Z,-2.23
2023-01-23T02:18:00.694Z,-2.13
2023-01-23T02:19:00.913Z,-2.08
2023-01-23T02:20:01.128Z,-2.1
2023-01-23T02:21:01.294Z,-2.13
2023-01-23T02:22:02.251Z,-2.1
2023-01-23T02:23:02.731Z,-2.04
2023-01-23T02:24:02.854Z,-2.11
2023-01-23T02:25:03.096Z,-2.05
2023-01-23T02:26:03.433Z,-2.1
2023-01-23T02:27:04.350Z,-2.05
2023-01-23T02:28:05.430Z,-1.97
2023-01-23T02:29:06.338Z,-2.1
2023-01-23T02:30:07.368Z,-2.02
2023-01-23T02:31:08.545Z,-2.04
2023-01-23T02:32:08.486Z,-2.11
2023-01-23T02:33:09.432Z,-2.08
2023-01-23T02:34:09.292Z,-2.05
2023-01-23T02:35:09.907Z,-2.05
2023-01-23T02:36:10.370Z,-2.13
2023-01-23T02:37:11.614Z,-2.08
2023-01-23T02:38:11.905Z,-2.08
2023-01-23T02:39:12.516Z,-2.07
2023-01-23T02:40:13.710Z,-2.14
2023-01-23T02:41:13.775Z,-2.08
2023-01-23T02:42:14.402Z,-2.02
2023-01-23T02:43:15.428Z,-2.04
2023-01-23T02:44:15.818Z,-2.14
2023-01-23T02:45:16.855Z,-2.17
2023-01-23T02:46:18.233Z,-2.08
2023-01-23T02:47:18.333Z,-2.11
2023-01-23T02:48:19.269Z,-2.04
2023-01-23T02:49:19.626Z,-2.1
2023-01-23T02:50:20.985Z,-2.08
2023-01-23T02:51:21.085Z,-2.1
2023-01-23T02:52:22.100Z,-2.14
2023-01-23T02:53:22.604Z,-2.15
2023-01-23T02:54:22.999Z,-2.07
2023-01-23T02:55:23.961Z,-1.94
2023-01-23T02:56:24.489Z,-2.1
2023-01-23T02:57:24.687Z,-2.17
2023-01-23T02:58:25.720Z,-2.22
2023-01-23T02:59:25.948Z,-2.25
2023-01-23T03:00:27.652Z,-2.29
2023-01-23T03:01:27.547Z,-2.23
2023-01-23T03:02:27.671Z,-2.33
2023-01-23T03:03:28.480Z,-2.33
2023-01-23T03:04:29.315Z,-2.22
2023-01-23T03:05:30.531Z,-2.23
2023-01-23T03:06:31.259Z,-2.17
2023-01-23T03:07:32.469Z,-2.14
2023-01-23T03:08:32.676Z,-2.1
2023-01-23T03:09:33.359Z,-2.04
2023-01-23T03:10:34.281Z,-2.08
2023-01-23T03:11:34.921Z,-2.13
2023-01-23T03:12:36.128Z,-2.08
2023-01-23T03:13:36.183Z,-2.05
2023-01-23T03:14:36.602Z,-2.14
2023-01-23T03:15:37.643Z,-2
2023-01-23T03:16:39.045Z,-2.1
2023-01-23T03:17:38.564Z,-2.02
2023-01-23T03:18:55.156Z,-1.99
2023-01-23T03:19:39.508Z,-2.04
2023-01-23T03:20:39.434Z,-2.14
2023-01-23T03:21:39.803Z,-2.13
2023-01-23T03:22:40.007Z,-2.04
2023-01-23T03:23:40.943Z,-2.15
2023-01-23T03:24:41.358Z,-2.14
2023-01-23T03:25:41.614Z,-1.97
2023-01-23T03:26:41.513Z,-2.13
2023-01-23T03:27:42.472Z,-2.04
2023-01-23T03:28:43.221Z,-2.11
2023-01-23T03:29:43.847Z,-1.96
2023-01-23T03:30:45.106Z,-1.97
2023-01-23T03:31:45.740Z,-1.99
2023-01-23T03:32:46.456Z,-2.04
2023-01-23T03:33:46.652Z,-2.07
2023-01-23T03:34:47.363Z,-2
2023-01-23T03:35:47.282Z,-2
2023-01-23T03:36:48.311Z,-2.05
2023-01-23T03:37:48.858Z,-1.99
2023-01-23T03:38:49.783Z,-1.99
2023-01-23T03:39:49.987Z,-1.99
2023-01-23T03:40:50.514Z,-1.96
2023-01-23T03:41:50.724Z,-1.96
2023-01-23T03:42:51.640Z,-1.99
2023-01-23T03:43:51.943Z,-2.02
2023-01-23T03:44:52.110Z,-2.05
2023-01-23T03:45:53.836Z,-2.05
2023-01-23T03:46:53.656Z,-2.1
2023-01-23T03:47:54.263Z,-2.05
2023-01-23T03:48:54.627Z,-2.02
2023-01-23T03:49:55.577Z,-1.97
2023-01-23T03:50:55.943Z,-2.02
2023-01-23T03:51:56.450Z,-1.94
2023-01-23T03:52:56.841Z,-2.07
2023-01-23T03:53:58.049Z,-2
2023-01-23T03:54:58.997Z,-1.97
2023-01-23T03:55:59.640Z,-1.99
2023-01-23T03:56:59.841Z,-1.97
2023-01-23T03:58:00.747Z,-1.97
2023-01-23T03:59:01.816Z,-1.93
2023-01-23T04:00:02.452Z,-1.93
2023-01-23T04:01:03.679Z,-1.93
2023-01-23T04:02:04.541Z,-1.96
2023-01-23T04:03:04.779Z,-2
2023-01-23T04:04:05.813Z,-1.97
2023-01-23T04:05:06.530Z,-2
2023-01-23T04:06:07.442Z,-1.99
2023-01-23T04:07:07.881Z,-2
2023-01-23T04:08:08.504Z,-1.97
2023-01-23T04:09:08.733Z,-1.97
2023-01-23T04:10:13.291Z,-1.94
2023-01-23T04:11:10.085Z,-1.92
2023-01-23T04:12:11.052Z,-1.93
2023-01-23T04:13:11.306Z,-1.93
2023-01-23T04:14:12.411Z,-1.89
2023-01-23T04:15:13.526Z,-1.9
2023-01-23T04:16:14.838Z,-1.97
2023-01-23T04:17:14.469Z,-1.9
2023-01-23T04:18:14.811Z,-1.9
2023-01-23T04:19:15.728Z,-1.92
2023-01-23T04:20:15.937Z,-1.9
2023-01-23T04:21:16.279Z,-2
2023-01-23T04:22:17.333Z,-2
2023-01-23T04:23:18.255Z,-2
2023-01-23T04:24:18.601Z,-1.94
2023-01-23T04:25:19.419Z,-2.05
2023-01-23T04:26:20.671Z,-2
2023-01-23T04:27:21.304Z,-1.96
2023-01-23T04:28:22.217Z,-2
2023-01-23T04:29:23.540Z,-1.9
2023-01-23T04:30:23.681Z,-1.87
2023-01-23T04:31:25.242Z,-1.87
2023-01-23T04:32:25.074Z,-1.82
2023-01-23T04:33:25.403Z,-1.92
2023-01-23T04:34:25.938Z,-1.93
2023-01-23T04:35:25.482Z,-1.89
2023-01-23T04:36:26.409Z,-1.9
2023-01-23T04:37:27.031Z,-1.9
2023-01-23T04:38:27.965Z,-1.93
2023-01-23T04:39:27.585Z,-1.92
2023-01-23T04:40:28.473Z,-1.99
2023-01-23T04:41:28.686Z,-1.97
2023-01-23T04:42:29.369Z,-1.99
2023-01-23T04:43:29.547Z,-1.96
2023-01-23T04:44:30.590Z,-2.04
2023-01-23T04:45:30.986Z,-2.07
2023-01-23T04:46:32.126Z,-2.13
2023-01-23T04:47:32.468Z,-2.08
2023-01-23T04:48:33.084Z,-2.08
2023-01-23T04:49:33.199Z,-2.08
2023-01-23T04:50:34.109Z,-2.08
2023-01-23T04:51:34.782Z,-2.17
2023-01-23T04:52:34.558Z,-2.04
2023-01-23T04:53:35.201Z,-2.04
2023-01-23T04:54:36.133Z,-2.08
2023-01-23T04:55:36.281Z,-2.1
2023-01-23T04:56:37.517Z,-2.15
2023-01-23T04:57:37.749Z,-2.15
2023-01-23T04:58:37.958Z,-1.99
2023-01-23T04:59:39.322Z,-2.05
2023-01-23T05:00:39.537Z,-1.96
2023-01-23T05:01:40.761Z,-1.99
2023-01-23T05:02:41.833Z,-1.97
2023-01-23T05:03:41.495Z,-1.96
2023-01-23T05:04:42.198Z,-2
2023-01-23T05:05:43.038Z,-2
2023-01-23T05:06:43.974Z,-2.02
2023-01-23T05:07:45.282Z,-2
2023-01-23T05:08:45.211Z,-1.97
2023-01-23T05:09:46.290Z,-2
2023-01-23T05:10:47.205Z,-1.92
2023-01-23T05:11:46.947Z,-1.97
2023-01-23T05:12:48.171Z,-1.96
2023-01-23T05:13:48.528Z,-1.96
2023-01-23T05:14:49.290Z,-1.94
2023-01-23T05:15:49.462Z,-1.99
2023-01-23T05:16:50.691Z,-1.99
2023-01-23T05:17:51.777Z,-2.02
2023-01-23T05:18:52.412Z,-2.05
2023-01-23T05:19:52.904Z,-2
2023-01-23T05:20:52.843Z,-2.05
2023-01-23T05:21:53.780Z,-1.97
2023-01-23T05:22:56.541Z,-2.05
2023-01-23T05:23:55.555Z,-2.13
2023-01-23T05:24:55.467Z,-2.11
2023-01-23T05:25:55.857Z,-2.02
2023-01-23T05:26:56.151Z,-2.07
2023-01-23T05:27:56.808Z,-2.15
2023-01-23T05:28:57.500Z,-2.17
2023-01-23T05:29:58.113Z,-2.11
2023-01-23T05:30:58.621Z,-2.14
2023-01-23T05:31:58.945Z,-2.15
2023-01-23T05:32:58.986Z,-2
2023-01-23T05:33:59.322Z,-2.18
2023-01-23T05:34:59.856Z,-2.2
2023-01-23T05:36:00.059Z,-2.13
2023-01-23T05:37:01.545Z,-2.08
2023-01-23T05:38:01.668Z,-2.1
2023-01-23T05:39:02.607Z,-2.15
2023-01-23T05:40:02.556Z,-2.15
2023-01-23T05:41:03.783Z,-2.14
2023-01-23T05:42:03.413Z,-2.04
2023-01-23T05:43:04.627Z,-2.07
2023-01-23T05:44:05.610Z,-2.1
2023-01-23T05:45:05.929Z,-2.11
2023-01-23T05:46:06.130Z,-2.13
2023-01-23T05:47:07.279Z,-2.11
2023-01-23T05:48:07.675Z,-2.14
2023-01-23T05:49:08.016Z,-2.11
2023-01-23T05:50:08.267Z,-2.14
2023-01-23T05:51:08.997Z,-2.26
2023-01-23T05:52:09.080Z,-2.2
2023-01-23T05:53:10.411Z,-2.29
2023-01-23T05:54:10.626Z,-2.28
2023-01-23T05:55:11.303Z,-2.25
2023-01-23T05:56:12.445Z,-2.32
2023-01-23T05:57:12.665Z,-2.29
2023-01-23T05:58:16.404Z,-2.29
2023-01-23T05:59:14.630Z,-2.17
2023-01-23T06:00:15.235Z,-2.15
2023-01-23T06:01:15.871Z,-2.11
2023-01-23T06:02:16.089Z,-2.17
2023-01-23T06:03:16.072Z,-2.18
2023-01-23T06:04:16.838Z,-2.22
2023-01-23T06:05:17.314Z,-2.17
2023-01-23T06:06:17.409Z,-2.17
2023-01-23T06:07:18.619Z,-2.17
2023-01-23T06:08:19.218Z,-2.2
2023-01-23T06:09:19.728Z,-2.13
2023-01-23T06:10:20.902Z,-2.17
2023-01-23T06:11:21.262Z,-2.2
2023-01-23T06:12:21.900Z,-2.18
2023-01-23T06:13:22.556Z,-2.18
2023-01-23T06:14:22.902Z,-2.15
2023-01-23T06:15:24.218Z,-2.23
2023-01-23T06:16:23.728Z,-2.17
2023-01-23T06:17:25.045Z,-2.17
2023-01-23T06:18:26.136Z,-2.17
2023-01-23T06:19:26.758Z,-2.17
2023-01-23T06:20:27.637Z,-2.18
2023-01-23T06:21:27.204Z,-2.28
2023-01-23T06:22:29.082Z,-2.18
2023-01-23T06:23:27.895Z,-2.15
2023-01-23T06:24:28.813Z,-2.14
2023-01-23T06:25:29.769Z,-2.17
2023-01-23T06:26:29.926Z,-2.1
2023-01-23T06:27:30.132Z,-2.11
2023-01-23T06:28:30.075Z,-2.13
2023-01-23T06:29:31.568Z,-2.17
2023-01-23T06:30:32.477Z,-2.18
2023-01-23T06:31:33.320Z,-2.22
2023-01-23T06:32:32.841Z,-2.23
2023-01-23T06:33:33.895Z,-2.29
2023-01-23T06:34:33.968Z,-2.25
2023-01-23T06:35:34.990Z,-2.36
2023-01-23T06:36:35.285Z,-2.37
2023-01-23T06:37:36.209Z,-2.32
2023-01-23T06:38:36.551Z,-2.37
2023-01-23T06:39:37.491Z,-2.45
2023-01-23T06:40:37.837Z,-2.37
2023-01-23T06:41:39.059Z,-2.39
2023-01-23T06:42:40.275Z,-2.42
2023-01-23T06:43:41.203Z,-2.45
2023-01-23T06:44:42.225Z,-2.47
2023-01-23T06:45:42.997Z,-2.47
2023-01-23T06:46:43.174Z,-2.52
2023-01-23T06:47:44.289Z,-2.48
2023-01-23T06:48:44.605Z,-2.47
2023-01-23T06:49:44.968Z,-2.52
2023-01-23T06:50:45.214Z,-2.52
2023-01-23T06:51:45.600Z,-2.48
2023-01-23T06:52:45.521Z,-2.48
2023-01-23T06:53:45.859Z,-2.48
2023-01-23T06:54:47.050Z,-2.51
2023-01-23T06:55:46.982Z,-2.54
2023-01-23T06:56:48.284Z,-2.52
2023-01-23T06:57:48.192Z,-2.54
2023-01-23T06:58:49.128Z,-2.5
2023-01-23T06:59:50.056Z,-2.52
2023-01-23T07:00:50.691Z,-2.54
2023-01-23T07:01:50.832Z,-2.54
2023-01-23T07:02:52.186Z,-2.54
2023-01-23T07:03:52.057Z,-2.57
2023-01-23T07:04:53.111Z,-2.55
2023-01-23T07:05:54.045Z,-2.47
2023-01-23T07:06:54.458Z,-2.5
2023-01-23T07:07:54.856Z,-2.52
2023-01-23T07:08:56.211Z,-2.55
2023-01-23T07:09:57.160Z,-2.47
2023-01-23T07:10:57.375Z,-2.5
2023-01-23T07:11:58.025Z,-2.44
2023-01-23T07:12:59.235Z,-2.51
2023-01-23T07:13:58.870Z,-2.5
2023-01-23T07:14:59.786Z,-2.52
2023-01-23T07:16:00.510Z,-2.5
2023-01-23T07:17:00.830Z,-2.51
2023-01-23T07:18:01.132Z,-2.45
2023-01-23T07:19:02.210Z,-2.51
2023-01-23T07:20:02.577Z,-2.54
2023-01-23T07:21:02.525Z,-2.52
2023-01-23T07:22:02.463Z,-2.5
2023-01-23T07:23:04.955Z,-2.55
2023-01-23T07:24:03.292Z,-2.45
2023-01-23T07:25:03.495Z,-2.48
2023-01-23T07:26:04.406Z,-2.5
2023-01-23T07:27:05.284Z,-2.47
2023-01-23T07:28:06.507Z,-2.51
2023-01-23T07:29:06.741Z,-2.55
2023-01-23T07:30:06.977Z,-2.52
2023-01-23T07:31:08.566Z,-2.47
2023-01-23T07:32:11.550Z,-2.48
2023-01-23T07:33:09.598Z,-2.44
2023-01-23T07:34:09.659Z,-2.47
2023-01-23T07:35:10.270Z,-2.47
2023-01-23T07:36:10.515Z,-2.51
2023-01-23T07:37:10.705Z,-2.5
2023-01-23T07:38:11.930Z,-2.5
2023-01-23T07:39:13.020Z,-2.51
2023-01-23T07:40:13.644Z,-2.5
2023-01-23T07:41:14.167Z,-2.52
2023-01-23T07:42:15.080Z,-2.39
2023-01-23T07:43:15.066Z,-2.5
2023-01-23T07:44:15.714Z,-2.52
2023-01-23T07:45:16.967Z,-2.4
2023-01-23T07:46:17.616Z,-2.45
2023-01-23T07:47:18.297Z,-2.32
2023-01-23T07:48:18.375Z,-2.32
2023-01-23T07:49:19.703Z,-2.32
2023-01-23T07:50:20.975Z,-2.26
2023-01-23T07:51:20.832Z,-2.28
2023-01-23T07:52:21.156Z,-2.28
2023-01-23T07:53:21.712Z,-2.17
2023-01-23T07:54:22.622Z,-2.28
2023-01-23T07:55:22.829Z,-2.33
2023-01-23T07:56:23.343Z,-2.26
2023-01-23T07:57:23.761Z,-2.13
2023-01-23T07:58:24.419Z,-2.15
2023-01-23T07:59:25.346Z,-2.13
2023-01-23T08:00:31.144Z,-2.07
2023-01-23T08:01:27.087Z,-2.11
2023-01-23T08:02:27.323Z,-2.04
2023-01-23T08:03:28.871Z,-2.15
2023-01-23T08:04:29.072Z,-2.08
2023-01-23T08:05:29.469Z,-2.2
2023-01-23T08:06:30.553Z,-2.1
2023-01-23T08:07:30.716Z,-2.08
2023-01-23T08:08:31.711Z,-2.11
2023-01-23T08:09:32.347Z,-2.07
2023-01-23T08:10:32.612Z,-2
2023-01-23T08:11:34.655Z,-2
2023-01-23T08:12:34.192Z,-1.94
2023-01-23T08:13:34.431Z,-2.02
2023-01-23T08:14:34.928Z,-2.05
2023-01-23T08:15:34.868Z,-1.99
2023-01-23T08:16:36.130Z,-2
2023-01-23T08:17:36.360Z,-1.93
2023-01-23T08:18:37.438Z,-1.92
2023-01-23T08:19:37.767Z,-1.93
2023-01-23T08:20:38.369Z,-1.9
2023-01-23T08:21:38.605Z,-1.79
2023-01-23T08:22:39.530Z,-1.75
2023-01-23T08:23:40.293Z,-1.82
2023-01-23T08:24:40.323Z,-1.71
2023-01-23T08:25:40.815Z,-1.79
2023-01-23T08:26:41.183Z,-1.9
2023-01-23T08:27:41.334Z,-1.82
2023-01-23T08:28:42.357Z,-1.81
2023-01-23T08:29:43.584Z,-1.66
2023-01-23T08:30:44.193Z,-1.66
2023-01-23T08:31:45.019Z,-1.72
2023-01-23T08:32:45.343Z,-1.74
2023-01-23T08:33:46.664Z,-1.63
2023-01-23T08:34:47.019Z,-1.61
2023-01-23T08:35:47.636Z,-1.74
2023-01-23T08:36:47.872Z,-1.72
2023-01-23T08:37:48.178Z,-1.64
2023-01-23T08:38:49.114Z,-1.72
2023-01-23T08:39:50.424Z,-1.69
2023-01-23T08:40:50.690Z,-1.66
2023-01-23T08:41:50.772Z,-1.71
2023-01-23T08:42:51.476Z,-1.74
2023-01-23T08:43:52.581Z,-1.76
2023-01-23T08:44:53.124Z,-1.74
2023-01-23T08:45:54.152Z,-1.71
2023-01-23T08:46:54.449Z,-1.75
2023-01-23T08:47:54.691Z,-1.72
2023-01-23T08:48:55.049Z,-1.66
2023-01-23T08:49:55.103Z,-1.71
2023-01-23T08:50:55.598Z,-1.68
2023-01-23T08:51:55.652Z,-1.68
2023-01-23T08:52:56.650Z,-1.58
2023-01-23T08:53:56.642Z,-1.56
2023-01-23T08:54:57.960Z,-1.6
2023-01-23T08:55:58.174Z,-1.58
2023-01-23T08:56:58.392Z,-1.61
2023-01-23T08:57:58.668Z,-1.57
2023-01-23T08:58:59.754Z,-1.53
2023-01-23T08:59:59.700Z,-1.5
2023-01-23T09:01:01.137Z,-1.58
2023-01-23T09:02:01.803Z,-1.57
2023-01-23T09:03:02.166Z,-1.58
2023-01-23T09:04:02.727Z,-1.51
2023-01-23T09:05:02.841Z,-1.53
2023-01-23T09:06:03.234Z,-1.53
2023-01-23T09:07:03.500Z,-1.5
2023-01-23T09:08:05.150Z,-1.42
2023-01-23T09:09:04.654Z,-1.39
2023-01-23T09:10:04.428Z,-1.29
2023-01-23T09:11:04.982Z,-1.3
2023-01-23T09:12:05.494Z,-1.25
2023-01-23T09:13:05.466Z,-1.18
2023-01-23T09:14:06.462Z,-1.11
2023-01-23T09:15:07.008Z,-1.11
2023-01-23T09:16:07.724Z,-1.15
2023-01-23T09:17:08.571Z,-1.09
2023-01-23T09:18:08.321Z,-1.12
2023-01-23T09:19:09.940Z,-1.03
2023-01-23T09:20:10.292Z,-1.09
2023-01-23T09:21:13.803Z,-1.03
2023-01-23T09:22:12.300Z,-0.99
2023-01-23T09:23:12.282Z,-1.04
2023-01-23T09:24:12.942Z,-0.94
2023-01-23T09:25:14.030Z,-0.97
2023-01-23T09:26:14.359Z,-0.94
2023-01-23T09:27:14.911Z,-0.99
2023-01-23T09:28:15.055Z,-0.97
2023-01-23T09:29:15.558Z,-0.96
2023-01-23T09:30:15.501Z,-0.93
2023-01-23T09:31:15.914Z,-0.96
2023-01-23T09:32:16.668Z,-0.96
2023-01-23T09:33:16.612Z,-0.91
2023-01-23T09:34:18.053Z,-0.94
2023-01-23T09:35:18.097Z,-0.96
2023-01-23T09:36:18.453Z,-0.97
2023-01-23T09:37:18.758Z,-0.94
2023-01-23T09:38:19.279Z,-1.01
2023-01-23T09:39:19.229Z,-1.07
2023-01-23T09:40:21.512Z,-1
2023-01-23T09:41:21.257Z,-0.99
2023-01-23T09:42:21.937Z,-0.99
2023-01-23T09:43:23.190Z,-1.01
2023-01-23T09:44:23.612Z,-1.01
2023-01-23T09:45:24.540Z,-0.97
2023-01-23T09:46:25.839Z,-0.99
2023-01-23T09:47:26.189Z,-0.96
2023-01-23T09:48:26.580Z,-0.96
2023-01-23T09:49:27.643Z,-0.97
2023-01-23T09:50:29.156Z,-0.96
2023-01-23T09:51:28.762Z,-0.99
2023-01-23T09:52:29.461Z,-0.93
2023-01-23T09:53:29.425Z,-0.99
2023-01-23T09:54:29.939Z,-0.94
2023-01-23T09:55:30.290Z,-0.99
2023-01-23T09:56:31.312Z,-1.04
2023-01-23T09:57:32.283Z,-1.06
2023-01-23T09:58:32.424Z,-0.97
2023-01-23T09:59:33.243Z,-1.15
2023-01-23T10:00:33.456Z,-1.12
2023-01-23T10:01:33.900Z,-1.09
2023-01-23T10:02:34.818Z,-1.32
2023-01-23T10:03:35.630Z,-1.35
2023-01-23T10:04:35.512Z,-1.33
2023-01-23T10:05:36.299Z,-1.32
2023-01-23T10:06:36.927Z,-1.29
2023-01-23T10:07:36.732Z,-1.19
2023-01-23T10:08:37.437Z,-1.15
2023-01-23T10:09:37.668Z,-1.19
2023-01-23T10:10:38.415Z,-1.12
2023-01-23T10:11:38.652Z,-1.09
2023-01-23T10:12:38.872Z,-1.12
2023-01-23T10:13:39.119Z,-1.15
2023-01-23T10:14:41.853Z,-1.14
2023-01-23T10:15:40.067Z,-1.14
2023-01-23T10:16:55.143Z,-1.12
2023-01-23T10:17:40.859Z,-1.07
2023-01-23T10:18:41.314Z,-1.03
2023-01-23T10:19:41.950Z,-1.09
2023-01-23T10:20:42.697Z,-0.97
2023-01-23T10:21:43.022Z,-1.07
2023-01-23T10:22:43.254Z,-1.01
2023-01-23T10:23:44.473Z,-1.03
2023-01-23T10:27:48.382Z,-0.96
2023-01-23T10:28:48.434Z,-0.97
2023-01-23T10:29:49.373Z,-0.85
2023-01-23T10:30:50.716Z,-0.81
2023-01-23T10:31:51.307Z,-0.8
2023-01-23T10:32:51.996Z,-0.81
2023-01-23T10:33:52.526Z,-0.7
2023-01-23T10:34:52.904Z,-0.78
2023-01-23T10:35:53.017Z,-0.69
2023-01-23T10:37:00.464Z,-0.8
2023-01-23T10:37:54.400Z,-0.67
2023-01-23T10:38:54.840Z,-0.75
2023-01-23T10:39:55.798Z,-0.74
2023-01-23T10:40:56.757Z,-0.66
2023-01-23T10:42:03.737Z,-0.62
2023-01-23T10:42:57.952Z,-0.78
2023-01-23T10:43:58.023Z,-0.74
2023-01-23T10:44:59.266Z,-0.78
2023-01-23T10:45:59.631Z,-0.67
2023-01-23T10:47:00.059Z,-0.62
2023-01-23T10:48:06.397Z,-0.64
2023-01-23T10:49:01.191Z,-0.64
2023-01-23T10:50:02.538Z,-0.64
2023-01-23T10:51:03.353Z,-0.69
2023-01-23T10:52:03.782Z,-0.64
2023-01-23T10:53:03.988Z,-0.69
2023-01-23T10:54:10.287Z,-0.64
2023-01-23T10:55:05.524Z,-0.63
2023-01-23T10:56:06.456Z,-0.64
2023-01-23T10:57:06.956Z,-0.69
2023-01-23T10:58:07.271Z,-0.67
2023-01-23T10:59:07.588Z,-0.63
2023-01-23T11:00:08.384Z,-0.67
2023-01-23T11:01:09.085Z,-0.62
2023-01-23T11:02:09.650Z,-0.66
2023-01-23T11:03:10.180Z,-0.69
2023-01-23T11:04:10.352Z,-0.72
2023-01-23T11:05:10.683Z,-0.67
2023-01-23T11:06:10.862Z,-0.66
2023-01-23T11:07:10.942Z,-0.56
2023-01-23T11:08:11.662Z,-0.64
2023-01-23T11:09:12.230Z,-0.66
2023-01-23T11:10:12.755Z,-0.64
2023-01-23T11:11:12.969Z,-0.67
2023-01-23T11:12:13.236Z,-0.69
2023-01-23T11:13:13.518Z,-0.54
2023-01-23T11:14:14.840Z,-0.53
2023-01-23T11:15:15.038Z,-0.46
2023-01-23T11:16:15.285Z,-0.48
2023-01-23T11:17:15.397Z,-0.53
2023-01-23T11:18:18.760Z,-0.53
2023-01-23T11:19:16.915Z,-0.51
2023-01-23T11:20:17.541Z,-0.46
2023-01-23T11:21:18.231Z,-0.44
2023-01-23T11:22:18.839Z,-0.38
2023-01-23T11:23:19.094Z,-0.41
2023-01-23T11:24:37.728Z,-0.35
2023-01-23T11:25:20.097Z,-0.36
2023-01-23T11:26:19.677Z,-0.3
2023-01-23T11:27:20.783Z,-0.21
2023-01-23T11:28:21.299Z,-0.21
2023-01-23T11:29:22.104Z,-0.24
2023-01-23T11:30:23.040Z,-0.2
2023-01-23T11:31:23.525Z,-0.23
2023-01-23T11:32:24.425Z,-0.26
2023-01-23T11:33:24.774Z,-0.3
2023-01-23T11:34:25.059Z,-0.35
2023-01-23T11:35:25.440Z,-0.42
2023-01-23T11:36:25.768Z,-0.53
2023-01-23T11:37:26.125Z,-0.56
2023-01-23T11:38:42.077Z,-0.53
2023-01-23T11:39:35.779Z,-0.44
2023-01-23T11:40:36.301Z,-0.62
2023-01-23T11:41:36.257Z,-0.6
2023-01-23T11:42:37.601Z,-0.54
2023-01-23T11:43:38.150Z,-0.45
2023-01-23T11:44:51.568Z,-0.42
2023-01-23T11:45:39.099Z,-0.54
2023-01-23T11:46:39.979Z,-0.56
2023-01-23T11:47:40.197Z,-0.51
2023-01-23T11:48:41.593Z,-0.51
2023-01-23T11:49:41.645Z,-0.53
2023-01-23T11:50:56.793Z,-0.51
2023-01-23T11:51:42.106Z,-0.46
2023-01-23T11:52:42.444Z,-0.45
2023-01-23T11:53:49.221Z,-0.44
2023-01-23T11:54:43.288Z,-0.33
2023-01-23T11:55:44.588Z,-0.39
2023-01-23T11:56:45.247Z,-0.38
2023-01-23T11:57:45.749Z,-0.35
2023-01-23T11:58:55.693Z,-0.44
2023-01-23T11:59:47.346Z,-0.45
2023-01-23T12:00:48.314Z,-0.48
2023-01-23T12:02:04.044Z,-0.45
2023-01-23T12:02:50.085Z,-0.41
2023-01-23T12:03:51.525Z,-0.42
2023-01-23T12:04:52.123Z,-0.46
2023-01-23T12:05:52.094Z,-0.38
2023-01-23T12:06:53.016Z,-0.27
2023-01-23T12:07:53.068Z,-0.18
2023-01-23T12:08:54.289Z,-0.23
2023-01-23T12:09:54.432Z,-0.13
2023-01-23T12:10:54.344Z,-0.18
2023-01-23T12:11:58.585Z,0.05
2023-01-23T12:12:56.181Z,0
2023-01-23T12:13:57.123Z,0.05
2023-01-23T12:14:57.396Z,0.06
2023-01-23T12:15:57.923Z,0.06
2023-01-23T12:16:58.753Z,0
2023-01-23T12:18:59.831Z,-0.26
2023-01-23T12:19:59.741Z,-0.2
2023-01-23T12:21:01.289Z,-0.21
2023-01-23T12:22:01.441Z,-0.12
2023-01-23T12:23:02.161Z,-0.1
2023-01-23T12:24:02.281Z,-0.1
2023-01-23T12:25:02.542Z,0.02
2023-01-23T12:26:02.757Z,-0.13
2023-01-23T12:27:03.136Z,-0.05
2023-01-23T12:28:04.043Z,-0.1
2023-01-23T12:29:05.222Z,-0.28
2023-01-23T12:30:05.721Z,-0.24
2023-01-23T12:31:06.069Z,-0.24
2023-01-23T12:32:07.282Z,-0.27
2023-01-23T12:33:06.968Z,-0.31
2023-01-23T12:34:07.049Z,-0.33
2023-01-23T12:35:07.714Z,-0.42
2023-01-23T12:36:07.927Z,-0.36
2023-01-23T12:37:31.259Z,-0.42
2023-01-23T12:38:08.687Z,-0.44
2023-01-23T12:39:08.626Z,-0.41
2023-01-23T12:40:19.324Z,-0.42
2023-01-23T12:41:10.091Z,-0.45
2023-01-23T12:42:10.868Z,-0.45
2023-01-23T12:43:11.095Z,-0.45
2023-01-23T12:44:11.312Z,-0.44
2023-01-23T12:45:11.932Z,-0.48
2023-01-23T12:46:11.851Z,-0.45
2023-01-23T12:47:13.018Z,-0.49
2023-01-23T12:48:14.173Z,-0.39
2023-01-23T12:49:14.589Z,-0.35
2023-01-23T12:50:15.138Z,-0.28
2023-01-23T12:51:16.030Z,-0.24
2023-01-23T12:52:16.404Z,-0.24
2023-01-23T12:53:16.787Z,-0.21
2023-01-23T12:54:17.760Z,-0.21
2023-01-23T12:55:17.893Z,-0.26
2023-01-23T12:56:18.553Z,-0.23
2023-01-23T12:57:18.875Z,-0.15
2023-01-23T12:58:19.552Z,-0.09
2023-01-23T12:59:20.276Z,-0.05
2023-01-23T13:00:21.473Z,-0.06
2023-01-23T13:01:21.459Z,-0.05
2023-01-23T13:02:21.501Z,0.02
2023-01-23T13:03:29.028Z,0.09
2023-01-23T13:04:22.568Z,0.01
2023-01-23T13:05:22.275Z,0.11
2023-01-23T13:06:23.264Z,0.15
2023-01-23T13:07:23.915Z,0.18
2023-01-23T13:08:27.859Z,0.2
2023-01-23T13:09:26.027Z,0.19
2023-01-23T13:10:27.463Z,0.23